Time;durP1;ratioP1;P1;durP2;ratioP2;P2;SDS_P1;SDS_P2;PMS_P1;PMS_P2;Temp;Humidity;BMP_temperature;BMP_pressure;BME280_temperature;BME280_humidity;BME280_pressure;Samples;Min_cycle;Max_cycle;Signal;HPM_P1;HPM_P2
2022/01/16 00:02:09;622524.00;2.08;1073.13;0.00;0.00;0.62;;;;;6.30;1.00;;;;;;2243522;62;1325;-89
2022/01/16 00:04:35;555557.00;1.85;957.54;0.00;0.00;0.62;;;;;6.10;1.00;;;;;;2239611;62;937;-88
2022/01/16 00:07:04;1251233.00;4.17;2183.13;0.00;0.00;0.62;;;;;6.00;1.00;;;;;;2239432;61;1739;-88
2022/01/16 00:09:32;658460.00;2.19;1135.28;0.00;0.00;0.62;;;;;5.40;1.00;;;;;;2239616;62;1189;-88
2022/01/16 00:12:00;578441.00;1.93;997.01;0.00;0.00;0.62;;;;;5.10;1.00;;;;;;2239474;62;1404;-88
2022/01/16 00:14:29;526505.00;1.76;907.47;0.00;0.00;0.62;;;;;5.00;1.00;;;;;;2241198;62;1188;-89
2022/01/16 00:16:56;457243.00;1.52;788.24;0.00;0.00;0.62;;;;;5.10;1.00;;;;;;2243588;62;1923;-87
2022/01/16 00:19:23;574096.00;1.91;989.51;0.00;0.00;0.62;;;;;5.50;1.00;;;;;;2243469;62;1163;-88
2022/01/16 00:21:52;469735.00;1.57;809.73;0.00;0.00;0.62;;;;;5.70;1.00;;;;;;2244302;61;1362;-88
2022/01/16 00:24:19;408880.00;1.36;705.07;0.00;0.00;0.62;;;;;5.70;1.00;;;;;;2251592;61;1160;-88
2022/01/16 00:26:46;653066.00;2.18;1125.94;0.00;0.00;0.62;;;;;5.70;1.00;;;;;;2251663;61;1056;-89
2022/01/16 00:29:13;468140.00;1.56;806.99;0.00;0.00;0.62;;;;;6.40;1.00;;;;;;2251736;61;1115;-89
2022/01/16 00:31:42;524291.00;1.75;903.66;27923.00;0.09;48.99;;;;;7.00;1.00;;;;;;2251801;61;1150;-89
2022/01/16 00:34:11;119431640.00;398.11;69009176.00;0.00;0.00;0.62;;;;;7.30;1.00;;;;;;2251680;61;1108;-88
2022/01/16 00:36:38;536032.00;1.79;923.89;0.00;0.00;0.62;;;;;7.10;1.00;;;;;;2251845;61;2007;-90
2022/01/16 00:39:06;544630.00;1.82;938.70;0.00;0.00;0.62;;;;;7.50;1.00;;;;;;2251775;61;1168;-89
2022/01/16 00:41:35;602028.00;2.01;1037.72;0.00;0.00;0.62;;;;;7.50;1.00;;;;;;2244796;61;1182;-89
2022/01/16 00:44:02;537230.00;1.79;925.95;0.00;0.00;0.62;;;;;7.60;1.00;;;;;;2247939;61;1456;-89
2022/01/16 00:46:28;505676.00;1.69;871.60;0.00;0.00;0.62;;;;;7.50;1.00;;;;;;2251658;61;1115;-89
2022/01/16 00:48:55;410406.00;1.37;707.70;0.00;0.00;0.62;;;;;7.20;1.00;;;;;;2251609;61;1220;-89
2022/01/16 00:51:23;505708.00;1.69;871.65;0.00;0.00;0.62;;;;;6.70;1.00;;;;;;2251710;61;1163;-89
2022/01/16 00:53:50;689475.00;2.30;1188.99;11074.00;0.04;19.81;;;;;7.20;1.00;;;;;;2244569;61;1323;-89
2022/01/16 00:56:18;529654.00;1.77;912.90;0.00;0.00;0.62;;;;;7.00;1.00;;;;;;2244528;61;2011;-89
2022/01/16 00:58:45;667147.00;2.22;1150.31;0.00;0.00;0.62;;;;;7.30;1.00;;;;;;2246927;62;1003;-89
2022/01/16 01:01:12;566185.00;1.89;975.87;13280.00;0.04;23.63;;;;;7.20;1.00;;;;;;2246929;62;1104;-89
2022/01/16 01:03:40;712331.00;2.37;1228.63;0.00;0.00;0.62;;;;;6.90;1.00;;;;;;2247091;61;1382;-89
2022/01/16 01:06:07;532089.00;1.77;917.09;0.00;0.00;0.62;;;;;7.10;1.00;;;;;;2247226;62;1046;-89
2022/01/16 01:08:34;508689.00;1.70;876.78;0.00;0.00;0.62;;;;;7.30;1.00;;;;;;2247508;62;1038;-88
2022/01/16 01:11:05;489506.00;1.63;843.76;0.00;0.00;0.62;;;;;7.20;1.00;;;;;;2244676;61;1169;-88
2022/01/16 01:13:54;549227.00;1.83;946.63;0.00;0.00;0.62;;;;;6.90;1.00;;;;;;2244219;62;1465;-88
2022/01/16 01:16:21;438281.00;1.46;755.63;0.00;0.00;0.62;;;;;6.00;1.00;;;;;;2248679;61;1930;-89
2022/01/16 01:18:52;670772.00;2.24;1156.59;0.00;0.00;0.62;;;;;5.10;1.00;;;;;;2250793;61;1037;-89
2022/01/16 06:56:29;630731.00;2.10;1087.31;0.00;0.00;0.62;;;;;1.00;1.00;;;;;;2216299;62;1921;-89
2022/01/16 07:05:50;;;;;;;;;;;;;;;;;;;;;
2022/01/16 07:09:19;718505.00;2.40;1239.34;0.00;0.00;0.62;;;;;0.90;1.00;;;;;;2235851;62;1270;-87
2022/01/16 07:12:13;774745.00;2.58;1337.11;0.00;0.00;0.62;;;;;1.10;1.00;;;;;;2235855;62;1720;-89
2022/01/16 07:15:00;1828290.00;6.09;3277.50;238858.00;0.80;412.79;;;;;1.00;1.00;;;;;;2235901;62;930;-88
2022/01/16 07:18:16;1789716.00;5.97;3201.10;22582.00;0.08;39.74;;;;;1.30;1.00;;;;;;2235647;62;2001;-89
2022/01/16 07:21:12;;;;;;;;;;;;;;;;;;;;;
2022/01/16 07:24:15;;;;;;;;;;;;;;;;;;;;;
2022/01/16 07:30:13;1237802.00;4.13;2158.72;60515.00;0.20;105.37;;;;;1.00;1.00;;;;;;2222102;62;1483;-88
2022/01/16 10:56:34;1307649.00;4.36;2286.11;148088.00;0.49;256.51;;;;;8.00;1.00;;;;;;2249436;61;1197;-89
2022/01/16 11:13:01;2164592.00;7.22;3967.95;222391.00;0.74;384.46;;;;;7.50;1.00;;;;;;2229833;62;1569;-89
2022/01/16 11:15:42;2219084.00;7.40;4084.31;311633.00;1.04;537.92;;;;;7.90;1.00;;;;;;2231750;62;1713;-88
2022/01/16 11:18:38;;;;;;;;;;;;;;;;;;;;;
2022/01/16 11:21:18;1009877.00;3.37;1749.97;0.00;0.00;0.62;;;;;7.80;1.00;;;;;;2225978;62;1081;-89
2022/01/16 11:24:25;651676.00;2.17;1123.54;10914.00;0.04;19.53;;;;;7.90;1.00;;;;;;2224469;62;1435;-89
2022/01/16 11:31:12;;;;;;;;;;;;;;;;;;;;;
2022/01/16 11:46:50;417596.00;1.39;720.06;0.00;0.00;0.62;;;;;9.00;1.00;;;;;;2205282;62;1548;-88
2022/01/16 11:49:34;1149581.00;3.83;1999.32;13578.00;0.05;24.15;;;;;9.20;1.00;;;;;;2205485;62;1060;-88
2022/01/16 11:52:16;542777.00;1.81;935.51;0.00;0.00;0.62;;;;;8.60;1.00;;;;;;2208014;62;1639;-88
2022/01/16 11:54:53;698367.00;2.33;1204.41;0.00;0.00;0.62;;;;;8.30;1.00;;;;;;2215772;62;1722;-88
2022/01/16 11:58:19;809962.00;2.70;1398.50;0.00;0.00;0.62;;;;;8.50;1.00;;;;;;2220703;62;1911;-89
2022/01/16 12:05:05;1272162.00;4.24;2221.25;0.00;0.00;0.62;;;;;9.30;1.00;;;;;;2213416;62;1485;-88
2022/01/16 14:08:52;599478.00;2.00;1033.32;0.00;0.00;0.62;;;;;7.90;1.00;;;;;;2249809;61;1234;-87
2022/01/16 14:11:24;315347.00;1.05;544.30;0.00;0.00;0.62;;;;;8.30;1.00;;;;;;2248247;61;1120;-88
2022/01/16 14:13:55;428872.00;1.43;739.45;0.00;0.00;0.62;;;;;8.60;1.00;;;;;;2248346;61;1361;-88
2022/01/16 14:16:22;270732.00;0.90;467.60;0.00;0.00;0.62;;;;;8.70;1.00;;;;;;2248229;61;1164;-88
2022/01/16 14:19:06;666781.00;2.22;1149.68;0.00;0.00;0.62;;;;;8.90;1.00;;;;;;2248211;61;1925;-87
2022/01/16 14:24:32;435749.00;1.45;751.27;0.00;0.00;0.62;;;;;9.20;1.00;;;;;;2248149;61;701;-85
2022/01/16 14:27:01;326217.00;1.09;562.98;0.00;0.00;0.62;;;;;9.30;1.00;;;;;;2248227;61;1156;-87
2022/01/16 14:29:29;248224.00;0.83;428.90;0.00;0.00;0.62;;;;;9.50;1.00;;;;;;2248247;61;1056;-86
2022/01/16 14:31:58;190184.00;0.63;329.03;0.00;0.00;0.62;;;;;9.50;1.00;;;;;;2248232;61;1394;-86
2022/01/16 14:34:27;233324.00;0.78;403.27;0.00;0.00;0.62;;;;;9.50;1.00;;;;;;2248169;61;978;-87
2022/01/16 14:36:55;418623.00;1.40;721.82;0.00;0.00;0.62;;;;;9.60;1.00;;;;;;2248160;61;1993;-86
2022/01/16 14:39:23;309973.00;1.03;535.06;0.00;0.00;0.62;;;;;9.20;1.00;;;;;;2248058;61;1134;-87
2022/01/16 14:41:52;330016.00;1.10;569.51;0.00;0.00;0.62;;;;;9.30;1.00;;;;;;2248249;61;1375;-85
2022/01/16 14:44:21;254455.00;0.85;439.61;0.00;0.00;0.62;;;;;9.20;1.00;;;;;;2248212;61;1069;-86
2022/01/16 14:46:49;286683.00;0.96;495.03;0.00;0.00;0.62;;;;;9.00;1.00;;;;;;2248189;61;1597;-86
2022/01/16 14:49:17;207060.00;0.69;358.08;0.00;0.00;0.62;;;;;8.90;1.00;;;;;;2248165;61;1013;-86
2022/01/16 14:51:45;466854.00;1.56;804.78;0.00;0.00;0.62;;;;;8.90;1.00;;;;;;2248002;61;1093;-87
2022/01/16 14:54:13;410751.00;1.37;708.29;0.00;0.00;0.62;;;;;9.20;1.00;;;;;;2247810;61;1260;-87
2022/01/16 14:56:40;502621.00;1.68;866.34;0.00;0.00;0.62;;;;;9.40;1.00;;;;;;2248174;61;1137;-86
2022/01/16 14:59:11;260608.00;0.87;450.19;0.00;0.00;0.62;;;;;9.40;1.00;;;;;;2248085;61;2015;-87
2022/01/16 15:01:38;353008.00;1.18;609.03;0.00;0.00;0.62;;;;;9.00;1.00;;;;;;2248176;61;1133;-87
2022/01/16 15:04:05;449135.00;1.50;774.29;0.00;0.00;0.62;;;;;9.30;1.00;;;;;;2247930;61;1414;-86
2022/01/16 15:06:33;335477.00;1.12;578.90;0.00;0.00;0.62;;;;;9.10;1.00;;;;;;2248061;61;1125;-87
2022/01/16 15:09:00;475520.00;1.59;819.69;0.00;0.00;0.62;;;;;9.50;1.00;;;;;;2248011;61;1078;-88
2022/01/16 15:11:29;380598.00;1.27;656.45;0.00;0.00;0.62;;;;;9.40;1.00;;;;;;2248135;61;1125;-88
2022/01/16 15:13:58;306934.00;1.02;529.84;0.00;0.00;0.62;;;;;9.10;1.00;;;;;;2248083;62;1409;-88
2022/01/16 15:16:28;361731.00;1.21;624.02;0.00;0.00;0.62;;;;;8.90;1.00;;;;;;2247945;61;1095;-88
2022/01/16 15:18:57;262486.00;0.87;453.42;0.00;0.00;0.62;;;;;9.10;1.00;;;;;;2247934;61;2015;-88
2022/01/16 15:21:31;180606.00;0.60;312.53;0.00;0.00;0.62;;;;;9.00;1.00;;;;;;2248065;61;1085;-88
2022/01/16 15:23:59;402650.00;1.34;694.36;0.00;0.00;0.62;;;;;9.00;1.00;;;;;;2247872;61;1397;-88
2022/01/16 15:26:27;348039.00;1.16;600.49;0.00;0.00;0.62;;;;;9.20;1.00;;;;;;2248086;61;1084;-88
2022/01/16 15:28:54;262890.00;0.88;454.12;0.00;0.00;0.62;;;;;9.50;1.00;;;;;;2248050;61;1079;-88
2022/01/16 15:31:21;588681.00;1.96;1014.68;28684.00;0.10;50.31;;;;;8.90;1.00;;;;;;2248060;61;1070;-87
2022/01/16 15:33:50;309179.00;1.03;533.70;0.00;0.00;0.62;;;;;8.40;1.00;;;;;;2248034;61;1308;-87
2022/01/16 15:36:17;376365.00;1.25;649.18;0.00;0.00;0.62;;;;;8.30;1.00;;;;;;2248090;61;1453;-87
2022/01/16 15:38:45;420584.00;1.40;725.19;0.00;0.00;0.62;;;;;8.20;1.00;;;;;;2247903;61;1924;-88
2022/01/16 15:41:12;513738.00;1.71;885.48;0.00;0.00;0.62;;;;;8.50;1.00;;;;;;2248102;61;1066;-87
2022/01/16 15:43:39;376390.00;1.25;649.22;0.00;0.00;0.62;;;;;8.30;1.00;;;;;;2248045;61;1401;-87
2022/01/16 15:46:06;308612.00;1.03;532.72;0.00;0.00;0.62;;;;;7.90;1.00;;;;;;2248111;61;1008;-87
2022/01/16 15:48:34;479576.00;1.60;826.67;0.00;0.00;0.62;;;;;7.90;1.00;;;;;;2247994;61;1128;-87
2022/01/16 15:51:03;191980.00;0.64;332.12;0.00;0.00;0.62;;;;;8.10;1.00;;;;;;2248101;61;1074;-87
2022/01/16 15:53:30;228767.00;0.76;395.43;0.00;0.00;0.62;;;;;8.00;1.00;;;;;;2248013;61;1411;-87
2022/01/16 15:55:57;375938.00;1.25;648.44;0.00;0.00;0.62;;;;;7.80;1.00;;;;;;2248092;61;1168;-86
2022/01/16 15:58:24;370088.00;1.23;638.39;0.00;0.00;0.62;;;;;8.20;1.00;;;;;;2247921;61;2003;-87
2022/01/16 16:00:51;507811.00;1.69;875.27;0.00;0.00;0.62;;;;;8.20;1.00;;;;;;2248025;61;907;-87
2022/01/16 16:03:18;302242.00;1.01;521.77;0.00;0.00;0.62;;;;;8.00;1.00;;;;;;2247902;61;1791;-86
2022/01/16 16:05:45;277645.00;0.93;479.49;0.00;0.00;0.62;;;;;7.80;1.00;;;;;;2248663;61;1148;-87
2022/01/16 16:08:13;643511.00;2.15;1109.41;0.00;0.00;0.62;;;;;8.20;1.00;;;;;;2248511;61;1034;-87
2022/01/16 16:10:40;289811.00;0.97;500.40;0.00;0.00;0.62;;;;;7.90;1.00;;;;;;2248675;61;1069;-88
2022/01/16 16:13:07;209472.00;0.70;362.23;0.00;0.00;0.62;;;;;7.30;1.00;;;;;;2248550;61;1265;-87
2022/01/16 16:15:37;426399.00;1.42;735.19;0.00;0.00;0.62;;;;;7.40;1.00;;;;;;2248654;61;1167;-87
2022/01/16 16:18:04;119756672.00;399.19;69574656.00;0.00;0.00;0.62;;;;;7.70;1.00;;;;;;2248635;61;1911;-86
2022/01/16 16:20:31;420006.00;1.40;724.20;0.00;0.00;0.62;;;;;7.90;1.00;;;;;;2248563;61;1136;-88
2022/01/16 16:23:00;236446.00;0.79;408.64;0.00;0.00;0.62;;;;;8.10;1.00;;;;;;2248670;61;1388;-87
2022/01/16 16:25:31;354880.00;1.18;612.25;0.00;0.00;0.62;;;;;8.50;1.00;;;;;;2248679;61;1085;-88
2022/01/16 16:27:59;442581.00;1.48;763.02;0.00;0.00;0.62;;;;;8.10;1.00;;;;;;2248726;61;1061;-88
2022/01/16 16:30:28;305564.00;1.02;527.48;0.00;0.00;0.62;;;;;8.40;1.00;;;;;;2248633;61;1047;-87
2022/01/16 16:32:56;331249.00;1.10;571.63;0.00;0.00;0.62;;;;;8.50;1.00;;;;;;2248615;61;1349;-87
2022/01/16 16:35:26;294084.00;0.98;507.75;0.00;0.00;0.62;;;;;8.20;1.00;;;;;;2248674;61;1104;-87
2022/01/16 16:37:55;370558.00;1.24;639.20;0.00;0.00;0.62;;;;;8.40;1.00;;;;;;2248479;61;1924;-87
2022/01/16 16:40:23;517305.00;1.72;891.62;0.00;0.00;0.62;;;;;8.50;1.00;;;;;;2248517;61;1124;-88
2022/01/16 16:42:51;357220.00;1.19;616.27;0.00;0.00;0.62;;;;;8.30;1.00;;;;;;2248597;61;1399;-88
2022/01/16 16:45:18;432257.00;1.44;745.27;0.00;0.00;0.62;;;;;8.20;1.00;;;;;;2248628;61;1074;-88
2022/01/16 16:47:45;229240.00;0.76;396.24;0.00;0.00;0.62;;;;;8.00;1.00;;;;;;2248618;61;1153;-87
2022/01/16 16:50:15;250503.00;0.84;432.82;0.00;0.00;0.62;;;;;8.10;1.00;;;;;;2248572;61;1045;-87
2022/01/16 16:52:42;354509.00;1.18;611.61;27673.00;0.09;48.56;;;;;7.90;1.00;;;;;;2248566;61;1321;-86
2022/01/16 16:55:11;183854.00;0.61;318.13;0.00;0.00;0.62;;;;;7.70;1.00;;;;;;2248628;61;1155;-88
2022/01/16 17:00:22;441513.00;1.47;761.19;0.00;0.00;0.62;;;;;7.90;1.00;;;;;;2250021;61;1403;-88
2022/01/16 17:02:49;262962.00;0.88;454.24;0.00;0.00;0.62;;;;;7.90;1.00;;;;;;2248175;61;1454;-88
2022/01/16 17:05:16;508607.00;1.70;876.64;0.00;0.00;0.62;;;;;7.80;1.00;;;;;;2248491;61;1066;-89
2022/01/16 17:07:43;205397.00;0.68;355.21;0.00;0.00;0.62;;;;;8.00;1.00;;;;;;2248561;61;1141;-89
2022/01/16 17:10:11;250843.00;0.84;433.40;0.00;0.00;0.62;;;;;8.10;1.00;;;;;;2248565;61;1078;-90
2022/01/16 17:12:39;366073.00;1.22;631.49;0.00;0.00;0.62;;;;;8.30;1.00;;;;;;2248472;61;1376;-88
2022/01/16 17:15:07;277382.00;0.92;479.04;0.00;0.00;0.62;;;;;8.00;1.00;;;;;;2248500;61;1096;-88
2022/01/16 17:17:37;143380.00;0.48;248.40;0.00;0.00;0.62;;;;;8.30;1.00;;;;;;2248512;61;934;-88
2022/01/16 17:20:05;365590.00;1.22;630.66;0.00;0.00;0.62;;;;;8.20;1.00;;;;;;2248520;61;1081;-90
2022/01/16 17:22:32;369398.00;1.23;637.20;0.00;0.00;0.62;;;;;8.10;1.00;;;;;;2248477;61;1376;-88
2022/01/16 17:25:04;298019.00;0.99;514.51;0.00;0.00;0.62;;;;;8.10;1.00;;;;;;2248494;61;1034;-89
2022/01/16 17:27:31;275274.00;0.92;475.41;0.00;0.00;0.62;;;;;8.50;1.00;;;;;;2248500;61;1100;-88
2022/01/16 17:29:58;372449.00;1.24;642.45;0.00;0.00;0.62;;;;;8.30;1.00;;;;;;2248488;61;941;-88
2022/01/16 17:32:25;416911.00;1.39;718.88;0.00;0.00;0.62;;;;;8.20;1.00;;;;;;2248447;61;1403;-89
2022/01/16 17:34:55;515907.00;1.72;889.22;15955.00;0.05;28.26;;;;;8.20;1.00;;;;;;2248353;61;1076;-89
2022/01/16 17:37:22;211386.00;0.70;365.52;0.00;0.00;0.62;;;;;8.30;1.00;;;;;;2248467;61;1081;-89
2022/01/16 17:39:50;200297.00;0.67;346.43;0.00;0.00;0.62;;;;;8.30;1.00;;;;;;2248451;61;1999;-89
2022/01/16 17:42:18;346205.00;1.15;597.34;0.00;0.00;0.62;;;;;8.50;1.00;;;;;;2248442;61;1378;-88
2022/01/16 17:44:46;290080.00;0.97;500.87;0.00;0.00;0.62;;;;;8.40;1.00;;;;;;2248314;61;989;-88
2022/01/16 17:47:17;479731.00;1.60;826.93;0.00;0.00;0.62;;;;;8.60;1.00;;;;;;2248358;61;1135;-89
2022/01/16 17:49:45;190013.00;0.63;328.73;0.00;0.00;0.62;;;;;8.60;1.00;;;;;;2248443;61;1178;-89
2022/01/16 17:52:14;293393.00;0.98;506.56;0.00;0.00;0.62;;;;;8.80;1.00;;;;;;2248333;61;1275;-88
2022/01/16 17:54:41;286018.00;0.95;493.88;0.00;0.00;0.62;;;;;8.80;1.00;;;;;;2248425;61;997;-88
2022/01/16 17:57:08;439166.00;1.46;757.15;0.00;0.00;0.62;;;;;8.50;1.00;;;;;;2248392;61;1094;-88
2022/01/16 17:59:35;707893.00;2.36;1220.93;16623.00;0.06;29.42;;;;;8.60;1.00;;;;;;2248370;61;1989;-87
2022/01/16 18:02:02;168689.00;0.56;292.01;0.00;0.00;0.62;;;;;8.80;1.00;;;;;;2248369;61;1427;-89
2022/01/16 18:04:29;315549.00;1.05;544.65;0.00;0.00;0.62;;;;;9.00;1.00;;;;;;2248404;61;1136;-88
2022/01/16 18:06:56;526464.00;1.75;907.40;0.00;0.00;0.62;;;;;9.20;1.00;;;;;;2248292;61;1738;-89
2022/01/16 18:09:25;554919.00;1.85;956.44;0.00;0.00;0.62;;;;;8.60;1.00;;;;;;2248208;61;1009;-89
2022/01/16 18:11:53;358119.00;1.19;617.82;0.00;0.00;0.62;;;;;8.30;1.00;;;;;;2248346;61;1367;-88
2022/01/16 18:14:20;333107.00;1.11;574.83;0.00;0.00;0.62;;;;;8.20;1.00;;;;;;2248412;61;925;-87
2022/01/16 18:16:47;376002.00;1.25;648.55;0.00;0.00;0.62;;;;;8.40;1.00;;;;;;2248350;61;957;-88
2022/01/16 18:19:14;276435.00;0.92;477.41;0.00;0.00;0.62;;;;;8.20;1.00;;;;;;2248358;61;1993;-89
2022/01/16 18:21:41;332095.00;1.11;573.09;0.00;0.00;0.62;;;;;8.30;1.00;;;;;;2248300;61;1158;-88
2022/01/16 18:24:08;454182.00;1.51;782.98;19077.00;0.06;33.67;;;;;8.10;1.00;;;;;;2248354;61;1281;-88
2022/01/16 18:26:37;286609.00;0.96;494.90;0.00;0.00;0.62;;;;;8.00;1.00;;;;;;2248280;61;1102;-87
2022/01/16 18:29:05;593835.00;1.98;1023.58;0.00;0.00;0.62;;;;;8.20;1.00;;;;;;2248117;61;1155;-89
2022/01/16 18:31:35;328424.00;1.09;566.78;0.00;0.00;0.62;;;;;8.20;1.00;;;;;;2248282;61;1104;-88
2022/01/16 18:34:02;394511.00;1.32;680.37;0.00;0.00;0.62;;;;;8.10;1.00;;;;;;2248183;61;1258;-87
2022/01/16 18:36:30;396857.00;1.32;684.40;0.00;0.00;0.62;;;;;8.20;1.00;;;;;;2248247;61;1012;-88
2022/01/16 18:38:57;339491.00;1.13;585.80;0.00;0.00;0.62;;;;;8.00;1.00;;;;;;2248036;61;1989;-88
2022/01/16 18:41:25;273223.00;0.91;471.89;0.00;0.00;0.62;;;;;8.00;1.00;;;;;;2248210;61;1141;-88
2022/01/16 18:43:54;511255.00;1.70;881.20;9926.00;0.03;17.82;;;;;8.30;1.00;;;;;;2248083;61;1517;-88
2022/01/16 18:46:23;402282.00;1.34;693.73;85904.00;0.29;149.23;;;;;8.40;1.00;;;;;;2248176;61;1694;-88
2022/01/16 18:48:55;609834.00;2.03;1051.20;94668.00;0.32;164.37;;;;;7.80;1.00;;;;;;2248213;61;1056;-88
2022/01/16 18:51:23;547032.00;1.82;942.84;89932.00;0.30;156.19;;;;;8.20;1.00;;;;;;2248217;61;1080;-88
2022/01/16 18:53:50;477847.00;1.59;823.69;89184.00;0.30;154.90;;;;;8.30;1.00;;;;;;2248183;61;1386;-88
2022/01/16 18:56:17;599111.00;2.00;1032.69;85383.00;0.28;148.33;;;;;8.60;1.00;;;;;;2248230;61;1171;-88
2022/01/16 18:58:44;637276.00;2.12;1098.63;105669.00;0.35;183.36;;;;;8.80;1.00;;;;;;2248148;61;2005;-89
2022/01/16 19:01:13;432660.00;1.44;745.96;91137.00;0.30;158.27;;;;;8.80;1.00;;;;;;2248148;61;1102;-89
2022/01/16 19:03:41;630246.00;2.10;1086.47;87265.00;0.29;151.58;;;;;9.00;1.00;;;;;;2248182;61;1367;-89
2022/01/16 19:06:08;584055.00;1.95;1006.70;72684.00;0.24;126.40;;;;;9.00;1.00;;;;;;2248180;61;1000;-89
2022/01/16 19:08:36;603257.00;2.01;1039.84;86180.00;0.29;149.71;;;;;8.70;1.00;;;;;;2248067;61;1084;-88
2022/01/16 19:11:03;565241.00;1.88;974.24;77542.00;0.26;134.79;;;;;8.30;1.00;;;;;;2248216;61;1148;-88
2022/01/16 19:13:30;430528.00;1.44;742.29;88743.00;0.30;154.14;;;;;8.50;1.00;;;;;;2248165;61;1335;-88
2022/01/16 19:15:58;529748.00;1.77;913.06;96452.00;0.32;167.45;;;;;8.70;1.00;;;;;;2248189;61;1112;-88
2022/01/16 19:18:28;829388.00;2.76;1432.43;80084.00;0.27;139.18;;;;;8.70;1.00;;;;;;2248081;61;2005;-88
2022/01/16 19:20:55;643564.00;2.15;1109.50;100607.00;0.34;174.62;;;;;8.40;1.00;;;;;;2248168;61;1722;-87
2022/01/16 19:23:24;662166.00;2.21;1141.69;91294.00;0.30;158.54;;;;;8.50;1.00;;;;;;2248103;61;1293;-86
2022/01/16 19:25:51;612008.00;2.04;1054.96;87181.00;0.29;151.44;;;;;8.70;1.00;;;;;;2248263;61;930;-88
2022/01/16 19:28:18;519128.00;1.73;894.76;83548.00;0.28;145.17;;;;;9.10;1.00;;;;;;2248158;61;1418;-87
2022/01/16 19:30:45;584046.00;1.95;1006.68;97127.00;0.32;168.61;;;;;9.40;1.00;;;;;;2248070;61;1163;-87
2022/01/16 19:33:13;555665.00;1.85;957.73;92842.00;0.31;161.21;;;;;9.50;1.00;;;;;;2248065;61;1268;-87
2022/01/16 19:35:42;653408.00;2.18;1126.53;123273.00;0.41;213.73;;;;;9.50;1.00;;;;;;2248126;61;1060;-87
2022/01/16 19:38:09;710280.00;2.37;1225.07;88816.00;0.30;154.26;;;;;9.50;1.00;;;;;;2248064;61;983;-88
2022/01/16 19:40:36;646564.00;2.16;1114.69;92960.00;0.31;161.42;;;;;9.50;1.00;;;;;;2248687;61;1948;-88
2022/01/16 19:43:10;498645.00;1.66;859.49;96771.00;0.32;168.00;;;;;9.80;1.00;;;;;;2248729;61;1399;-87
2022/01/16 19:45:41;550826.00;1.84;949.38;73026.00;0.24;126.99;;;;;10.10;1.00;;;;;;2248773;61;1064;-87
2022/01/16 19:48:09;818424.00;2.73;1413.27;86459.00;0.29;150.19;;;;;10.30;1.00;;;;;;2248765;61;1200;-87
2022/01/16 19:50:36;827586.00;2.76;1429.28;93944.00;0.31;163.12;;;;;10.60;1.00;;;;;;2248693;61;1118;-87
2022/01/16 19:53:04;731878.00;2.44;1262.56;92439.00;0.31;160.52;;;;;10.60;1.00;;;;;;2248722;61;1330;-87
2022/01/16 19:55:31;811015.00;2.70;1400.34;84045.00;0.28;146.02;;;;;10.60;1.00;;;;;;2248707;61;1139;-87
2022/01/16 19:57:58;886045.00;2.95;1531.62;109520.00;0.37;190.00;;;;;10.20;1.00;;;;;;2248619;61;1750;-87
2022/01/16 20:00:25;925364.00;3.08;1600.71;115353.00;0.38;200.07;;;;;9.70;1.00;;;;;;2248641;61;1990;-87
2022/01/16 20:02:54;910488.00;3.03;1574.55;88616.00;0.30;153.92;;;;;9.70;1.00;;;;;;2248654;61;1273;-87
2022/01/16 20:05:22;1097936.00;3.66;1906.73;128174.00;0.43;222.18;;;;;10.20;1.00;;;;;;2248701;61;1757;-88
2022/01/16 20:07:49;900755.00;3.00;1557.45;82264.00;0.27;142.95;;;;;10.30;1.00;;;;;;2248691;61;1060;-86
2022/01/16 20:10:18;900533.00;3.00;1557.06;82812.00;0.28;143.89;;;;;10.00;1.00;;;;;;2248704;61;1052;-88
2022/01/16 20:12:46;119992248.00;399.97;69986424.00;123327.00;0.41;213.82;;;;;10.00;1.00;;;;;;2248733;61;1380;-88
2022/01/16 20:15:19;118456824.00;394.86;67331656.00;97573.00;0.33;169.38;;;;;10.30;1.00;;;;;;2248698;61;1614;-88
2022/01/16 20:17:49;123971984.00;413.24;77190624.00;94915.00;0.32;164.79;;;;;10.00;1.00;;;;;;2248627;61;1220;-88
2022/01/16 20:20:17;1012473.00;3.37;1754.58;0.00;0.00;0.62;;;;;10.00;1.00;;;;;;2248598;61;1908;-88
2022/01/16 20:22:44;1046978.00;3.49;1815.86;96857.00;0.32;168.15;;;;;9.90;1.00;;;;;;2248608;61;1403;-88
2022/01/16 20:25:11;1058750.00;3.53;1836.81;89146.00;0.30;154.83;;;;;9.40;1.00;;;;;;2248723;61;970;-87
2022/01/16 20:27:40;1132103.00;3.77;1967.93;79473.00;0.26;138.13;;;;;9.40;1.00;;;;;;2248631;61;944;-87
2022/01/16 20:30:08;833904.00;2.78;1440.32;95443.00;0.32;165.71;;;;;9.00;1.00;;;;;;2248703;61;1137;-88
2022/01/16 20:32:35;681064.00;2.27;1174.42;79772.00;0.27;138.64;;;;;8.70;1.00;;;;;;2248651;61;1285;-87
2022/01/16 20:35:02;654589.00;2.18;1128.58;84121.00;0.28;146.16;;;;;9.10;1.00;;;;;;2248688;61;1112;-87
2022/01/16 20:37:30;924371.00;3.08;1598.96;89186.00;0.30;154.90;;;;;8.90;1.00;;;;;;2248712;61;947;-87
2022/01/16 20:39:57;924320.00;3.08;1598.87;83857.00;0.28;145.70;;;;;9.00;1.00;;;;;;2248511;61;1993;-88
2022/01/16 20:42:25;786239.00;2.62;1357.14;87543.00;0.29;152.06;;;;;8.80;1.00;;;;;;2248545;61;1384;-87
2022/01/16 20:44:53;685854.00;2.29;1182.72;84321.00;0.28;146.50;;;;;8.60;1.00;;;;;;2248652;61;1046;-88
2022/01/16 20:47:20;795941.00;2.65;1374.05;89474.00;0.30;155.40;;;;;9.20;1.00;;;;;;2248568;61;1093;-88
2022/01/16 20:49:47;661594.00;2.21;1140.70;97822.00;0.33;169.81;;;;;9.00;1.00;;;;;;2248530;61;1155;-87
2022/01/16 20:52:16;752215.00;2.51;1297.91;82345.00;0.27;143.09;;;;;9.00;1.00;;;;;;2248496;61;1374;-89
2022/01/16 20:54:44;613684.00;2.05;1057.85;90295.00;0.30;156.82;;;;;8.70;1.00;;;;;;2248554;61;933;-88
2022/01/16 20:57:11;726315.00;2.42;1252.90;71377.00;0.24;124.14;;;;;8.40;1.00;;;;;;2248537;61;920;-87
2022/01/16 20:59:39;117465640.00;391.55;65654084.00;88879.00;0.30;154.37;;;;;8.20;1.00;;;;;;2248528;61;2007;-88
2022/01/16 21:02:07;926967.00;3.09;1603.53;111910.00;0.37;194.13;;;;;8.20;1.00;;;;;;2248461;61;1259;-88
2022/01/16 21:04:34;633552.00;2.11;1092.19;95289.00;0.32;165.44;;;;;8.10;1.00;;;;;;2248536;61;1148;-88
2022/01/16 21:07:02;609476.00;2.03;1050.58;87214.00;0.29;151.50;;;;;8.10;1.00;;;;;;2248569;61;1104;-89
2022/01/16 21:09:29;595898.00;1.99;1027.14;96783.00;0.32;168.02;;;;;8.70;1.00;;;;;;2248407;61;1089;-89
2022/01/16 21:11:56;623243.00;2.08;1074.37;90600.00;0.30;157.34;;;;;8.90;1.00;;;;;;2248573;61;1372;-88
2022/01/16 21:14:23;555507.00;1.85;957.45;74212.00;0.25;129.04;;;;;9.50;1.00;;;;;;2248556;61;886;-88
2022/01/16 21:16:53;488623.00;1.63;842.24;89360.00;0.30;155.20;;;;;9.40;1.00;;;;;;2248581;61;1020;-88
2022/01/16 21:19:23;657131.00;2.19;1132.98;92086.00;0.31;159.91;;;;;9.70;1.00;;;;;;2248430;61;2019;-89
2022/01/16 21:21:50;580454.00;1.93;1000.48;80113.00;0.27;139.23;;;;;9.50;1.00;;;;;;2248560;61;1120;-88
2022/01/16 21:24:17;618748.00;2.06;1066.60;88063.00;0.29;152.96;;;;;9.00;1.00;;;;;;2248476;61;1042;-88
2022/01/16 21:26:44;722235.00;2.41;1245.82;91096.00;0.30;158.20;;;;;8.80;1.00;;;;;;2248480;61;1084;-88
2022/01/16 21:29:11;709151.00;2.36;1223.11;86122.00;0.29;149.61;;;;;9.00;1.00;;;;;;2248467;61;1731;-88
2022/01/16 21:31:38;483446.00;1.61;833.33;120125.00;0.40;208.30;;;;;9.40;1.00;;;;;;2248511;61;1167;-88
2022/01/16 21:34:05;453426.00;1.51;781.68;89138.00;0.30;154.82;;;;;9.70;1.00;;;;;;2248463;61;1280;-88
2022/01/16 21:36:38;533734.00;1.78;919.93;87247.00;0.29;151.55;;;;;9.70;1.00;;;;;;2248322;61;1035;-88
2022/01/16 21:39:05;532804.00;1.78;918.32;87874.00;0.29;152.64;;;;;9.80;1.00;;;;;;2248357;61;1997;-88
2022/01/16 21:41:33;734047.00;2.45;1266.33;80742.00;0.27;140.32;;;;;10.10;1.00;;;;;;2248342;61;1735;-87
2022/01/16 21:43:59;700529.00;2.34;1208.16;114580.00;0.38;198.73;;;;;10.20;1.00;;;;;;2248246;61;1637;-88
2022/01/16 21:46:26;764744.00;2.55;1319.70;89856.00;0.30;156.06;;;;;10.10;1.00;;;;;;2248472;61;1156;-88
2022/01/16 21:48:54;272338.00;0.91;470.36;92298.00;0.31;160.28;;;;;10.40;1.00;;;;;;2248410;61;1030;-87
2022/01/16 21:51:21;614483.00;2.05;1059.23;87025.00;0.29;151.17;;;;;10.60;1.00;;;;;;2248362;61;1690;-87
2022/01/16 21:53:49;412571.00;1.38;711.42;98496.00;0.33;170.98;;;;;10.30;1.00;;;;;;2248337;61;1643;-87
2022/01/16 21:56:16;636778.00;2.12;1097.77;96796.00;0.32;168.04;;;;;10.40;1.00;;;;;;2248424;61;1183;-86
2022/01/16 21:58:44;534076.00;1.78;920.51;86792.00;0.29;150.77;;;;;10.70;1.00;;;;;;2248263;61;1236;-87